sensor_id;sensor_type;location;lat;lon;timestamp;temperature;humidity
16666;DHT22;8446;50.998;6.250;2023-04-16T00:01:17;8.70;99.90
16666;DHT22;8446;50.998;6.250;2023-04-16T00:03:44;8.70;99.90
16666;DHT22;8446;50.998;6.250;2023-04-16T00:06:11;8.70;99.90
16666;DHT22;8446;50.998;6.250;2023-04-16T00:08:39;8.70;99.90
16666;DHT22;8446;50.998;6.250;2023-04-16T00:11:08;8.70;99.90
16666;DHT22;8446;50.998;6.250;2023-04-16T00:13:35;8.80;99.90
16666;DHT22;8446;50.998;6.250;2023-04-16T00:16:02;8.70;99.90
16666;DHT22;8446;50.998;6.250;2023-04-16T00:18:28;8.70;99.90
16666;DHT22;8446;50.998;6.250;2023-04-16T00:20:56;8.70;99.90
16666;DHT22;8446;50.998;6.250;2023-04-16T00:23:24;8.60;99.90
16666;DHT22;8446;50.998;6.250;2023-04-16T00:25:52;8.70;99.90
16666;DHT22;8446;50.998;6.250;2023-04-16T00:28:21;8.60;99.90
16666;DHT22;8446;50.998;6.250;2023-04-16T00:30:48;8.60;99.90
16666;DHT22;8446;50.998;6.250;2023-04-16T00:33:15;8.60;99.90
16666;DHT22;8446;50.998;6.250;2023-04-16T00:35:44;8.70;99.90
16666;DHT22;8446;50.998;6.250;2023-04-16T00:38:10;8.70;99.90
16666;DHT22;8446;50.998;6.250;2023-04-16T00:40:37;8.60;99.90
16666;DHT22;8446;50.998;6.250;2023-04-16T00:43:06;8.60;99.90
16666;DHT22;8446;50.998;6.250;2023-04-16T00:45:32;8.60;99.90
16666;DHT22;8446;50.998;6.250;2023-04-16T00:47:59;8.70;99.90
16666;DHT22;8446;50.998;6.250;2023-04-16T00:50:26;8.60;99.90
16666;DHT22;8446;50.998;6.250;2023-04-16T00:52:53;8.70;99.90
16666;DHT22;8446;50.998;6.250;2023-04-16T00:55:20;8.70;99.90
16666;DHT22;8446;50.998;6.250;2023-04-16T00:57:47;8.60;99.90
16666;DHT22;8446;50.998;6.250;2023-04-16T01:00:16;8.60;99.90
16666;DHT22;8446;50.998;6.250;2023-04-16T01:02:42;8.70;99.90
16666;DHT22;8446;50.998;6.250;2023-04-16T01:05:09;8.70;99.90
16666;DHT22;8446;50.998;6.250;2023-04-16T01:07:36;8.70;99.90
16666;DHT22;8446;50.998;6.250;2023-04-16T01:10:03;8.70;99.90
16666;DHT22;8446;50.998;6.250;2023-04-16T01:12:30;8.70;99.90
16666;DHT22;8446;50.998;6.250;2023-04-16T01:14:56;8.60;99.90
16666;DHT22;8446;50.998;6.250;2023-04-16T01:17:25;8.60;99.90
16666;DHT22;8446;50.998;6.250;2023-04-16T01:19:51;8.60;99.90
16666;DHT22;8446;50.998;6.250;2023-04-16T01:22:19;8.60;99.90
16666;DHT22;8446;50.998;6.250;2023-04-16T01:24:46;8.60;99.90
16666;DHT22;8446;50.998;6.250;2023-04-16T01:27:13;8.60;99.90
16666;DHT22;8446;50.998;6.250;2023-04-16T01:29:40;8.60;99.90
16666;DHT22;8446;50.998;6.250;2023-04-16T01:32:06;8.60;99.90
16666;DHT22;8446;50.998;6.250;2023-04-16T01:34:33;8.60;99.90
16666;DHT22;8446;50.998;6.250;2023-04-16T01:37:00;8.60;99.90
16666;DHT22;8446;50.998;6.250;2023-04-16T01:39:28;8.60;99.90
16666;DHT22;8446;50.998;6.250;2023-04-16T01:41:55;8.60;99.90
16666;DHT22;8446;50.998;6.250;2023-04-16T01:44:22;8.70;99.90
16666;DHT22;8446;50.998;6.250;2023-04-16T01:46:49;8.60;99.90
16666;DHT22;8446;50.998;6.250;2023-04-16T01:49:16;8.60;99.90
16666;DHT22;8446;50.998;6.250;2023-04-16T01:51:43;8.60;99.90
16666;DHT22;8446;50.998;6.250;2023-04-16T01:54:10;8.60;99.90
16666;DHT22;8446;50.998;6.250;2023-04-16T01:56:38;8.60;99.90
16666;DHT22;8446;50.998;6.250;2023-04-16T01:59:05;8.60;99.90
16666;DHT22;8446;50.998;6.250;2023-04-16T02:01:31;8.60;99.90
16666;DHT22;8446;50.998;6.250;2023-04-16T02:03:59;8.60;99.90
16666;DHT22;8446;50.998;6.250;2023-04-16T02:06:25;8.50;99.90
16666;DHT22;8446;50.998;6.250;2023-04-16T02:08:52;8.50;99.90
16666;DHT22;8446;50.998;6.250;2023-04-16T02:11:20;8.60;99.90
16666;DHT22;8446;50.998;6.250;2023-04-16T02:13:48;8.60;99.90
16666;DHT22;8446;50.998;6.250;2023-04-16T02:16:14;8.60;99.90
16666;DHT22;8446;50.998;6.250;2023-04-16T02:18:41;8.60;99.90
16666;DHT22;8446;50.998;6.250;2023-04-16T02:21:08;8.60;99.90
16666;DHT22;8446;50.998;6.250;2023-04-16T02:23:35;8.60;99.90
16666;DHT22;8446;50.998;6.250;2023-04-16T02:26:05;8.60;99.90
16666;DHT22;8446;50.998;6.250;2023-04-16T02:28:32;8.60;99.90
16666;DHT22;8446;50.998;6.250;2023-04-16T02:31:00;8.60;99.90
16666;DHT22;8446;50.998;6.250;2023-04-16T02:33:27;8.60;99.90
16666;DHT22;8446;50.998;6.250;2023-04-16T02:35:53;8.50;99.90
16666;DHT22;8446;50.998;6.250;2023-04-16T02:38:20;8.50;99.90
16666;DHT22;8446;50.998;6.250;2023-04-16T02:40:47;8.50;99.90
16666;DHT22;8446;50.998;6.250;2023-04-16T02:43:13;8.60;99.90
16666;DHT22;8446;50.998;6.250;2023-04-16T02:45:40;8.60;99.90
16666;DHT22;8446;50.998;6.250;2023-04-16T02:48:09;8.60;99.90
16666;DHT22;8446;50.998;6.250;2023-04-16T02:50:35;8.60;99.90
16666;DHT22;8446;50.998;6.250;2023-04-16T02:53:02;8.60;99.90
16666;DHT22;8446;50.998;6.250;2023-04-16T02:55:31;8.60;99.90
16666;DHT22;8446;50.998;6.250;2023-04-16T02:57:57;8.60;99.90
16666;DHT22;8446;50.998;6.250;2023-04-16T03:00:25;8.50;99.90
16666;DHT22;8446;50.998;6.250;2023-04-16T03:02:52;8.50;99.90
16666;DHT22;8446;50.998;6.250;2023-04-16T03:05:20;8.60;99.90
16666;DHT22;8446;50.998;6.250;2023-04-16T03:07:47;8.50;99.90
16666;DHT22;8446;50.998;6.250;2023-04-16T03:10:15;8.50;99.90
16666;DHT22;8446;50.998;6.250;2023-04-16T03:12:42;8.50;99.90
16666;DHT22;8446;50.998;6.250;2023-04-16T03:15:09;8.50;99.90
16666;DHT22;8446;50.998;6.250;2023-04-16T03:17:36;8.50;99.90
16666;DHT22;8446;50.998;6.250;2023-04-16T03:20:04;8.50;99.90
16666;DHT22;8446;50.998;6.250;2023-04-16T03:22:32;8.50;99.90
16666;DHT22;8446;50.998;6.250;2023-04-16T03:24:59;8.50;99.90
16666;DHT22;8446;50.998;6.250;2023-04-16T03:27:26;8.50;99.90
16666;DHT22;8446;50.998;6.250;2023-04-16T03:29:53;8.50;99.90
16666;DHT22;8446;50.998;6.250;2023-04-16T03:32:19;8.50;99.90
16666;DHT22;8446;50.998;6.250;2023-04-16T03:34:46;8.50;99.90
16666;DHT22;8446;50.998;6.250;2023-04-16T03:37:13;8.50;99.90
16666;DHT22;8446;50.998;6.250;2023-04-16T03:39:41;8.50;99.90
16666;DHT22;8446;50.998;6.250;2023-04-16T03:42:08;8.50;99.90
16666;DHT22;8446;50.998;6.250;2023-04-16T03:44:34;8.50;99.90
16666;DHT22;8446;50.998;6.250;2023-04-16T03:47:01;8.50;99.90
16666;DHT22;8446;50.998;6.250;2023-04-16T03:49:28;8.50;99.90
16666;DHT22;8446;50.998;6.250;2023-04-16T03:51:54;8.40;99.90
16666;DHT22;8446;50.998;6.250;2023-04-16T03:54:21;8.40;99.90
16666;DHT22;8446;50.998;6.250;2023-04-16T03:56:49;8.40;99.90
16666;DHT22;8446;50.998;6.250;2023-04-16T03:59:16;8.40;99.90
16666;DHT22;8446;50.998;6.250;2023-04-16T04:01:43;8.50;99.90
16666;DHT22;8446;50.998;6.250;2023-04-16T04:04:10;8.40;99.90
16666;DHT22;8446;50.998;6.250;2023-04-16T04:06:37;8.40;99.90
16666;DHT22;8446;50.998;6.250;2023-04-16T04:09:04;8.40;99.90
16666;DHT22;8446;50.998;6.250;2023-04-16T04:11:31;8.40;99.90
16666;DHT22;8446;50.998;6.250;2023-04-16T04:13:59;8.50;99.90
16666;DHT22;8446;50.998;6.250;2023-04-16T04:16:25;8.50;99.90
16666;DHT22;8446;50.998;6.250;2023-04-16T04:18:52;8.50;99.90
16666;DHT22;8446;50.998;6.250;2023-04-16T04:21:20;8.50;99.90
16666;DHT22;8446;50.998;6.250;2023-04-16T04:23:46;8.50;99.90
16666;DHT22;8446;50.998;6.250;2023-04-16T04:26:13;8.50;99.90
16666;DHT22;8446;50.998;6.250;2023-04-16T04:28:40;8.50;99.90
16666;DHT22;8446;50.998;6.250;2023-04-16T04:31:08;8.40;99.90
16666;DHT22;8446;50.998;6.250;2023-04-16T04:33:35;8.40;99.90
16666;DHT22;8446;50.998;6.250;2023-04-16T04:36:02;8.40;99.90
16666;DHT22;8446;50.998;6.250;2023-04-16T04:38:28;8.40;99.90
16666;DHT22;8446;50.998;6.250;2023-04-16T04:40:55;8.40;99.90
16666;DHT22;8446;50.998;6.250;2023-04-16T04:43:23;8.40;99.90
16666;DHT22;8446;50.998;6.250;2023-04-16T04:45:50;8.40;99.90
16666;DHT22;8446;50.998;6.250;2023-04-16T04:48:18;8.40;99.90
16666;DHT22;8446;50.998;6.250;2023-04-16T04:50:50;8.40;99.90
16666;DHT22;8446;50.998;6.250;2023-04-16T04:53:17;8.40;99.90
16666;DHT22;8446;50.998;6.250;2023-04-16T04:55:44;8.50;99.90
16666;DHT22;8446;50.998;6.250;2023-04-16T04:58:11;8.50;99.90
16666;DHT22;8446;50.998;6.250;2023-04-16T05:00:37;8.50;99.90
16666;DHT22;8446;50.998;6.250;2023-04-16T05:03:07;8.50;99.90
16666;DHT22;8446;50.998;6.250;2023-04-16T05:05:36;8.50;99.90
16666;DHT22;8446;50.998;6.250;2023-04-16T05:08:03;8.60;99.90
16666;DHT22;8446;50.998;6.250;2023-04-16T05:10:30;8.50;99.90
16666;DHT22;8446;50.998;6.250;2023-04-16T05:12:57;8.50;99.90
16666;DHT22;8446;50.998;6.250;2023-04-16T05:15:23;8.50;99.90
16666;DHT22;8446;50.998;6.250;2023-04-16T05:17:50;8.60;99.90
16666;DHT22;8446;50.998;6.250;2023-04-16T05:20:17;8.60;99.90
16666;DHT22;8446;50.998;6.250;2023-04-16T05:22:45;8.60;99.90
16666;DHT22;8446;50.998;6.250;2023-04-16T05:25:12;8.60;99.90
16666;DHT22;8446;50.998;6.250;2023-04-16T05:27:39;8.60;99.90
16666;DHT22;8446;50.998;6.250;2023-04-16T05:30:07;8.60;99.90
16666;DHT22;8446;50.998;6.250;2023-04-16T05:32:33;8.60;99.90
16666;DHT22;8446;50.998;6.250;2023-04-16T05:35:01;8.60;99.90
16666;DHT22;8446;50.998;6.250;2023-04-16T05:37:28;8.70;99.90
16666;DHT22;8446;50.998;6.250;2023-04-16T05:39:56;8.70;99.90
16666;DHT22;8446;50.998;6.250;2023-04-16T05:42:23;8.70;99.90
16666;DHT22;8446;50.998;6.250;2023-04-16T05:44:50;8.70;99.90
16666;DHT22;8446;50.998;6.250;2023-04-16T05:47:17;8.70;99.90
16666;DHT22;8446;50.998;6.250;2023-04-16T05:49:44;8.70;99.90
16666;DHT22;8446;50.998;6.250;2023-04-16T05:52:10;8.70;99.90
16666;DHT22;8446;50.998;6.250;2023-04-16T05:54:37;8.70;99.90
16666;DHT22;8446;50.998;6.250;2023-04-16T05:57:05;8.70;99.90
16666;DHT22;8446;50.998;6.250;2023-04-16T05:59:32;8.70;99.90
16666;DHT22;8446;50.998;6.250;2023-04-16T06:01:59;8.80;99.90
16666;DHT22;8446;50.998;6.250;2023-04-16T06:04:26;8.80;99.90
16666;DHT22;8446;50.998;6.250;2023-04-16T06:06:52;8.80;99.90
16666;DHT22;8446;50.998;6.250;2023-04-16T06:09:20;8.80;99.90
16666;DHT22;8446;50.998;6.250;2023-04-16T06:11:46;8.90;99.90
16666;DHT22;8446;50.998;6.250;2023-04-16T06:14:15;8.90;99.90
16666;DHT22;8446;50.998;6.250;2023-04-16T06:16:42;8.90;99.90
16666;DHT22;8446;50.998;6.250;2023-04-16T06:19:08;8.90;99.90
16666;DHT22;8446;50.998;6.250;2023-04-16T06:21:35;9.00;99.90
16666;DHT22;8446;50.998;6.250;2023-04-16T06:24:02;8.90;99.90
16666;DHT22;8446;50.998;6.250;2023-04-16T06:26:29;9.00;99.90
16666;DHT22;8446;50.998;6.250;2023-04-16T06:28:56;9.10;99.90
16666;DHT22;8446;50.998;6.250;2023-04-16T06:31:24;9.10;99.90
16666;DHT22;8446;50.998;6.250;2023-04-16T06:33:51;9.10;99.90
16666;DHT22;8446;50.998;6.250;2023-04-16T06:36:18;9.10;99.90
16666;DHT22;8446;50.998;6.250;2023-04-16T06:38:45;9.10;99.90
16666;DHT22;8446;50.998;6.250;2023-04-16T06:41:12;9.10;99.90
16666;DHT22;8446;50.998;6.250;2023-04-16T06:43:39;9.20;99.90
16666;DHT22;8446;50.998;6.250;2023-04-16T06:46:06;9.20;99.90
16666;DHT22;8446;50.998;6.250;2023-04-16T06:48:34;9.20;99.90
16666;DHT22;8446;50.998;6.250;2023-04-16T06:51:01;9.20;99.90
16666;DHT22;8446;50.998;6.250;2023-04-16T06:53:28;9.30;99.90
16666;DHT22;8446;50.998;6.250;2023-04-16T06:55:55;9.30;99.90
16666;DHT22;8446;50.998;6.250;2023-04-16T06:58:21;9.30;99.90
16666;DHT22;8446;50.998;6.250;2023-04-16T07:00:50;9.30;99.90
16666;DHT22;8446;50.998;6.250;2023-04-16T07:03:19;9.30;99.90
16666;DHT22;8446;50.998;6.250;2023-04-16T07:05:47;9.40;99.90
16666;DHT22;8446;50.998;6.250;2023-04-16T07:08:14;9.40;99.90
16666;DHT22;8446;50.998;6.250;2023-04-16T07:10:41;9.40;99.90
16666;DHT22;8446;50.998;6.250;2023-04-16T07:13:08;9.40;99.90
16666;DHT22;8446;50.998;6.250;2023-04-16T07:15:35;9.50;99.90
16666;DHT22;8446;50.998;6.250;2023-04-16T07:18:02;9.50;99.90
16666;DHT22;8446;50.998;6.250;2023-04-16T07:20:29;9.50;99.90
16666;DHT22;8446;50.998;6.250;2023-04-16T07:22:57;9.40;99.90
16666;DHT22;8446;50.998;6.250;2023-04-16T07:25:24;9.50;99.90
16666;DHT22;8446;50.998;6.250;2023-04-16T07:27:52;9.50;99.90
16666;DHT22;8446;50.998;6.250;2023-04-16T07:30:18;9.50;99.90
16666;DHT22;8446;50.998;6.250;2023-04-16T07:32:45;9.50;99.90
16666;DHT22;8446;50.998;6.250;2023-04-16T07:35:12;9.50;99.90
16666;DHT22;8446;50.998;6.250;2023-04-16T07:37:39;9.60;99.90
16666;DHT22;8446;50.998;6.250;2023-04-16T07:40:08;9.60;99.90
16666;DHT22;8446;50.998;6.250;2023-04-16T07:42:35;9.60;99.90
16666;DHT22;8446;50.998;6.250;2023-04-16T07:45:02;9.60;99.90
16666;DHT22;8446;50.998;6.250;2023-04-16T07:47:29;9.60;99.90
16666;DHT22;8446;50.998;6.250;2023-04-16T07:49:55;9.60;99.90
16666;DHT22;8446;50.998;6.250;2023-04-16T07:52:22;9.50;99.90
16666;DHT22;8446;50.998;6.250;2023-04-16T07:54:49;9.50;99.90
16666;DHT22;8446;50.998;6.250;2023-04-16T07:57:17;9.50;99.90
16666;DHT22;8446;50.998;6.250;2023-04-16T07:59:44;9.50;99.90
16666;DHT22;8446;50.998;6.250;2023-04-16T08:02:13;9.60;99.90
16666;DHT22;8446;50.998;6.250;2023-04-16T08:04:41;9.60;99.90
16666;DHT22;8446;50.998;6.250;2023-04-16T08:07:08;9.50;99.90
16666;DHT22;8446;50.998;6.250;2023-04-16T08:09:35;9.50;99.90
16666;DHT22;8446;50.998;6.250;2023-04-16T08:12:03;9.50;99.90
16666;DHT22;8446;50.998;6.250;2023-04-16T08:14:31;9.60;99.90
16666;DHT22;8446;50.998;6.250;2023-04-16T08:16:57;9.60;99.90
16666;DHT22;8446;50.998;6.250;2023-04-16T08:19:24;9.60;99.90
16666;DHT22;8446;50.998;6.250;2023-04-16T08:21:51;9.70;99.90
16666;DHT22;8446;50.998;6.250;2023-04-16T08:24:18;9.70;99.90
16666;DHT22;8446;50.998;6.250;2023-04-16T08:26:44;9.80;99.90
16666;DHT22;8446;50.998;6.250;2023-04-16T08:29:11;9.80;99.90
16666;DHT22;8446;50.998;6.250;2023-04-16T08:31:40;9.90;99.90
16666;DHT22;8446;50.998;6.250;2023-04-16T08:34:07;9.90;99.90
16666;DHT22;8446;50.998;6.250;2023-04-16T08:36:35;9.90;99.90
16666;DHT22;8446;50.998;6.250;2023-04-16T08:39:02;10.00;99.90
16666;DHT22;8446;50.998;6.250;2023-04-16T08:41:31;10.00;99.90
16666;DHT22;8446;50.998;6.250;2023-04-16T08:44:03;10.00;99.90
16666;DHT22;8446;50.998;6.250;2023-04-16T08:46:36;10.10;99.90
16666;DHT22;8446;50.998;6.250;2023-04-16T08:49:06;10.10;99.90
16666;DHT22;8446;50.998;6.250;2023-04-16T08:51:33;10.10;99.90
16666;DHT22;8446;50.998;6.250;2023-04-16T08:54:03;10.10;99.90
16666;DHT22;8446;50.998;6.250;2023-04-16T08:56:31;10.10;99.90
16666;DHT22;8446;50.998;6.250;2023-04-16T08:59:02;10.10;99.90
16666;DHT22;8446;50.998;6.250;2023-04-16T09:01:31;10.10;99.90
16666;DHT22;8446;50.998;6.250;2023-04-16T09:03:58;10.10;99.90
16666;DHT22;8446;50.998;6.250;2023-04-16T09:06:27;10.10;99.90
16666;DHT22;8446;50.998;6.250;2023-04-16T09:08:54;10.20;99.90
16666;DHT22;8446;50.998;6.250;2023-04-16T09:11:23;10.20;99.90
16666;DHT22;8446;50.998;6.250;2023-04-16T09:13:49;10.10;99.90
16666;DHT22;8446;50.998;6.250;2023-04-16T09:16:17;10.20;99.90
16666;DHT22;8446;50.998;6.250;2023-04-16T09:18:45;10.20;99.90
16666;DHT22;8446;50.998;6.250;2023-04-16T09:21:13;10.10;99.90
16666;DHT22;8446;50.998;6.250;2023-04-16T09:23:42;10.30;99.90
16666;DHT22;8446;50.998;6.250;2023-04-16T09:26:09;10.40;99.90
16666;DHT22;8446;50.998;6.250;2023-04-16T09:28:40;10.60;99.90
16666;DHT22;8446;50.998;6.250;2023-04-16T09:31:08;10.80;99.90
16666;DHT22;8446;50.998;6.250;2023-04-16T09:33:35;10.80;99.90
16666;DHT22;8446;50.998;6.250;2023-04-16T09:36:02;10.90;99.90
16666;DHT22;8446;50.998;6.250;2023-04-16T09:38:45;11.00;99.90
16666;DHT22;8446;50.998;6.250;2023-04-16T09:41:13;10.90;99.90
16666;DHT22;8446;50.998;6.250;2023-04-16T09:43:46;11.00;99.90
16666;DHT22;8446;50.998;6.250;2023-04-16T09:46:14;11.20;99.90
16666;DHT22;8446;50.998;6.250;2023-04-16T09:48:45;11.30;99.90
16666;DHT22;8446;50.998;6.250;2023-04-16T09:51:12;11.40;99.90
16666;DHT22;8446;50.998;6.250;2023-04-16T09:53:39;11.40;99.90
16666;DHT22;8446;50.998;6.250;2023-04-16T09:56:07;11.50;99.90
16666;DHT22;8446;50.998;6.250;2023-04-16T09:58:35;11.50;99.90
16666;DHT22;8446;50.998;6.250;2023-04-16T10:01:03;11.50;99.90
16666;DHT22;8446;50.998;6.250;2023-04-16T10:03:31;11.50;99.90
16666;DHT22;8446;50.998;6.250;2023-04-16T10:05:59;11.40;99.90
16666;DHT22;8446;50.998;6.250;2023-04-16T10:08:27;11.30;99.90
16666;DHT22;8446;50.998;6.250;2023-04-16T10:10:54;11.10;99.90
16666;DHT22;8446;50.998;6.250;2023-04-16T10:13:23;11.20;99.90
16666;DHT22;8446;50.998;6.250;2023-04-16T10:15:54;11.20;99.90
16666;DHT22;8446;50.998;6.250;2023-04-16T10:18:22;11.20;99.90
16666;DHT22;8446;50.998;6.250;2023-04-16T10:20:50;11.30;99.90
16666;DHT22;8446;50.998;6.250;2023-04-16T10:23:18;11.20;99.90
16666;DHT22;8446;50.998;6.250;2023-04-16T10:25:47;11.20;99.90
16666;DHT22;8446;50.998;6.250;2023-04-16T10:28:14;11.20;99.90
16666;DHT22;8446;50.998;6.250;2023-04-16T10:30:44;11.10;99.90
16666;DHT22;8446;50.998;6.250;2023-04-16T10:33:20;11.10;99.90
16666;DHT22;8446;50.998;6.250;2023-04-16T10:35:49;11.00;99.90
16666;DHT22;8446;50.998;6.250;2023-04-16T10:38:23;11.10;99.90
16666;DHT22;8446;50.998;6.250;2023-04-16T10:40:57;11.30;99.90
16666;DHT22;8446;50.998;6.250;2023-04-16T10:43:25;11.50;99.90
16666;DHT22;8446;50.998;6.250;2023-04-16T10:45:53;11.70;99.90
16666;DHT22;8446;50.998;6.250;2023-04-16T10:48:22;11.90;99.90
16666;DHT22;8446;50.998;6.250;2023-04-16T10:50:56;12.20;99.90
16666;DHT22;8446;50.998;6.250;2023-04-16T10:53:24;12.40;99.90
16666;DHT22;8446;50.998;6.250;2023-04-16T10:56:09;12.80;99.90
16666;DHT22;8446;50.998;6.250;2023-04-16T10:58:37;13.10;99.90
16666;DHT22;8446;50.998;6.250;2023-04-16T11:01:10;13.30;99.90
16666;DHT22;8446;50.998;6.250;2023-04-16T11:03:45;13.10;99.90
16666;DHT22;8446;50.998;6.250;2023-04-16T11:06:13;13.10;99.90
16666;DHT22;8446;50.998;6.250;2023-04-16T11:08:43;13.10;99.90
16666;DHT22;8446;50.998;6.250;2023-04-16T11:11:11;13.20;99.90
16666;DHT22;8446;50.998;6.250;2023-04-16T11:13:41;13.20;99.90
16666;DHT22;8446;50.998;6.250;2023-04-16T11:16:10;13.20;99.90
16666;DHT22;8446;50.998;6.250;2023-04-16T11:18:38;13.40;99.90
16666;DHT22;8446;50.998;6.250;2023-04-16T11:21:07;13.70;99.90
16666;DHT22;8446;50.998;6.250;2023-04-16T11:23:44;14.00;99.90
16666;DHT22;8446;50.998;6.250;2023-04-16T11:26:22;14.20;99.90
16666;DHT22;8446;50.998;6.250;2023-04-16T11:28:49;14.20;99.90
16666;DHT22;8446;50.998;6.250;2023-04-16T11:31:17;14.20;99.90
16666;DHT22;8446;50.998;6.250;2023-04-16T11:33:44;14.20;99.90
16666;DHT22;8446;50.998;6.250;2023-04-16T11:36:11;14.40;99.90
16666;DHT22;8446;50.998;6.250;2023-04-16T11:38:38;14.40;99.90
16666;DHT22;8446;50.998;6.250;2023-04-16T11:41:07;14.50;99.90
16666;DHT22;8446;50.998;6.250;2023-04-16T11:43:34;14.50;99.90
16666;DHT22;8446;50.998;6.250;2023-04-16T11:46:02;14.40;99.90
16666;DHT22;8446;50.998;6.250;2023-04-16T11:48:48;14.40;99.90
16666;DHT22;8446;50.998;6.250;2023-04-16T11:51:15;14.50;99.90
16666;DHT22;8446;50.998;6.250;2023-04-16T11:53:47;14.40;99.90
16666;DHT22;8446;50.998;6.250;2023-04-16T11:56:14;14.60;99.90
16666;DHT22;8446;50.998;6.250;2023-04-16T11:58:42;15.00;99.90
16666;DHT22;8446;50.998;6.250;2023-04-16T12:01:08;15.40;99.90
16666;DHT22;8446;50.998;6.250;2023-04-16T12:03:40;15.60;99.90
16666;DHT22;8446;50.998;6.250;2023-04-16T12:06:11;15.80;99.90
16666;DHT22;8446;50.998;6.250;2023-04-16T12:08:38;15.80;99.90
16666;DHT22;8446;50.998;6.250;2023-04-16T12:11:05;15.80;99.90
16666;DHT22;8446;50.998;6.250;2023-04-16T12:13:31;15.70;99.90
16666;DHT22;8446;50.998;6.250;2023-04-16T12:16:15;15.50;99.90
16666;DHT22;8446;50.998;6.250;2023-04-16T12:18:58;15.20;99.90
16666;DHT22;8446;50.998;6.250;2023-04-16T12:21:35;15.00;99.90
16666;DHT22;8446;50.998;6.250;2023-04-16T12:24:02;14.80;99.90
16666;DHT22;8446;50.998;6.250;2023-04-16T12:26:36;14.60;99.90
16666;DHT22;8446;50.998;6.250;2023-04-16T12:29:17;14.50;99.90
16666;DHT22;8446;50.998;6.250;2023-04-16T12:31:44;14.30;99.90
16666;DHT22;8446;50.998;6.250;2023-04-16T12:34:11;14.50;99.90
16666;DHT22;8446;50.998;6.250;2023-04-16T12:36:41;14.60;99.90
16666;DHT22;8446;50.998;6.250;2023-04-16T12:39:08;14.50;99.90
16666;DHT22;8446;50.998;6.250;2023-04-16T12:41:37;14.50;99.90
16666;DHT22;8446;50.998;6.250;2023-04-16T12:44:05;14.50;99.90
16666;DHT22;8446;50.998;6.250;2023-04-16T12:46:34;14.50;99.90
16666;DHT22;8446;50.998;6.250;2023-04-16T12:49:01;14.40;99.90
16666;DHT22;8446;50.998;6.250;2023-04-16T12:51:28;14.20;99.90
16666;DHT22;8446;50.998;6.250;2023-04-16T12:53:56;14.10;99.90
16666;DHT22;8446;50.998;6.250;2023-04-16T12:56:23;14.00;99.90
16666;DHT22;8446;50.998;6.250;2023-04-16T12:58:50;13.90;99.90
16666;DHT22;8446;50.998;6.250;2023-04-16T13:01:17;13.70;99.90
16666;DHT22;8446;50.998;6.250;2023-04-16T13:03:45;13.50;99.90
16666;DHT22;8446;50.998;6.250;2023-04-16T13:06:12;13.40;99.90
16666;DHT22;8446;50.998;6.250;2023-04-16T13:08:39;13.30;99.90
16666;DHT22;8446;50.998;6.250;2023-04-16T13:11:08;13.20;99.90
16666;DHT22;8446;50.998;6.250;2023-04-16T13:13:35;13.20;99.90
16666;DHT22;8446;50.998;6.250;2023-04-16T13:16:02;13.20;99.90
16666;DHT22;8446;50.998;6.250;2023-04-16T13:18:31;13.20;99.90
16666;DHT22;8446;50.998;6.250;2023-04-16T13:20:58;13.20;99.90
16666;DHT22;8446;50.998;6.250;2023-04-16T13:23:24;13.30;99.90
16666;DHT22;8446;50.998;6.250;2023-04-16T13:25:52;13.50;99.90
16666;DHT22;8446;50.998;6.250;2023-04-16T13:28:20;13.50;99.90
16666;DHT22;8446;50.998;6.250;2023-04-16T13:30:47;13.60;99.90
16666;DHT22;8446;50.998;6.250;2023-04-16T13:33:13;13.50;99.90
16666;DHT22;8446;50.998;6.250;2023-04-16T13:35:41;13.20;99.90
16666;DHT22;8446;50.998;6.250;2023-04-16T13:38:07;13.10;99.90
16666;DHT22;8446;50.998;6.250;2023-04-16T13:40:34;13.00;99.90
16666;DHT22;8446;50.998;6.250;2023-04-16T13:43:01;12.90;99.90
16666;DHT22;8446;50.998;6.250;2023-04-16T13:45:29;12.80;99.90
16666;DHT22;8446;50.998;6.250;2023-04-16T13:47:56;12.80;99.90
16666;DHT22;8446;50.998;6.250;2023-04-16T13:50:23;12.80;99.90
16666;DHT22;8446;50.998;6.250;2023-04-16T13:52:49;12.80;99.90
16666;DHT22;8446;50.998;6.250;2023-04-16T13:55:16;12.80;99.90
16666;DHT22;8446;50.998;6.250;2023-04-16T13:57:44;12.90;99.90
16666;DHT22;8446;50.998;6.250;2023-04-16T14:00:13;13.00;99.90
16666;DHT22;8446;50.998;6.250;2023-04-16T14:02:41;13.10;99.90
16666;DHT22;8446;50.998;6.250;2023-04-16T14:05:10;13.10;99.90
16666;DHT22;8446;50.998;6.250;2023-04-16T14:07:37;13.00;99.90
16666;DHT22;8446;50.998;6.250;2023-04-16T14:10:04;13.00;99.90
16666;DHT22;8446;50.998;6.250;2023-04-16T14:12:31;12.90;99.90
16666;DHT22;8446;50.998;6.250;2023-04-16T14:14:58;12.80;99.90
16666;DHT22;8446;50.998;6.250;2023-04-16T14:17:26;12.70;99.90
16666;DHT22;8446;50.998;6.250;2023-04-16T14:19:54;12.70;99.90
16666;DHT22;8446;50.998;6.250;2023-04-16T14:22:21;12.70;99.90
16666;DHT22;8446;50.998;6.250;2023-04-16T14:24:47;12.70;99.90
16666;DHT22;8446;50.998;6.250;2023-04-16T14:27:14;12.80;99.90
16666;DHT22;8446;50.998;6.250;2023-04-16T14:29:41;12.70;99.90
16666;DHT22;8446;50.998;6.250;2023-04-16T14:32:10;12.80;99.90
16666;DHT22;8446;50.998;6.250;2023-04-16T14:34:37;12.90;99.90
16666;DHT22;8446;50.998;6.250;2023-04-16T14:37:05;13.10;99.90
16666;DHT22;8446;50.998;6.250;2023-04-16T14:39:32;13.20;99.90
16666;DHT22;8446;50.998;6.250;2023-04-16T14:42:00;13.40;99.90
16666;DHT22;8446;50.998;6.250;2023-04-16T14:44:27;13.50;99.90
16666;DHT22;8446;50.998;6.250;2023-04-16T14:46:54;13.40;99.90
16666;DHT22;8446;50.998;6.250;2023-04-16T14:49:21;13.40;99.90
16666;DHT22;8446;50.998;6.250;2023-04-16T14:51:48;13.30;99.90
16666;DHT22;8446;50.998;6.250;2023-04-16T14:54:18;13.40;99.90
16666;DHT22;8446;50.998;6.250;2023-04-16T14:56:45;13.40;99.90
16666;DHT22;8446;50.998;6.250;2023-04-16T14:59:11;13.30;99.90
16666;DHT22;8446;50.998;6.250;2023-04-16T15:01:38;13.20;99.90
16666;DHT22;8446;50.998;6.250;2023-04-16T15:04:06;13.20;99.90
16666;DHT22;8446;50.998;6.250;2023-04-16T15:06:33;13.00;99.90
16666;DHT22;8446;50.998;6.250;2023-04-16T15:09:01;12.80;99.90
16666;DHT22;8446;50.998;6.250;2023-04-16T15:11:29;12.70;99.90
16666;DHT22;8446;50.998;6.250;2023-04-16T15:13:56;12.70;99.90
16666;DHT22;8446;50.998;6.250;2023-04-16T15:16:22;12.70;99.90
16666;DHT22;8446;50.998;6.250;2023-04-16T15:18:49;12.60;99.90
16666;DHT22;8446;50.998;6.250;2023-04-16T15:21:16;12.60;99.90
16666;DHT22;8446;50.998;6.250;2023-04-16T15:23:43;12.60;99.90
16666;DHT22;8446;50.998;6.250;2023-04-16T15:26:10;12.70;99.90
16666;DHT22;8446;50.998;6.250;2023-04-16T15:28:38;12.70;99.90
16666;DHT22;8446;50.998;6.250;2023-04-16T15:31:05;12.70;99.90
16666;DHT22;8446;50.998;6.250;2023-04-16T15:33:32;12.80;99.90
16666;DHT22;8446;50.998;6.250;2023-04-16T15:35:59;12.80;99.90
16666;DHT22;8446;50.998;6.250;2023-04-16T15:38:26;12.70;99.90
16666;DHT22;8446;50.998;6.250;2023-04-16T15:40:54;12.60;99.90
16666;DHT22;8446;50.998;6.250;2023-04-16T15:43:26;12.60;99.90
16666;DHT22;8446;50.998;6.250;2023-04-16T15:45:55;12.60;99.90
16666;DHT22;8446;50.998;6.250;2023-04-16T15:48:23;12.60;99.90
16666;DHT22;8446;50.998;6.250;2023-04-16T15:50:50;12.60;99.90
16666;DHT22;8446;50.998;6.250;2023-04-16T15:53:17;12.50;99.90
16666;DHT22;8446;50.998;6.250;2023-04-16T15:55:44;12.70;99.90
16666;DHT22;8446;50.998;6.250;2023-04-16T15:58:11;12.70;99.90